Time;durP1;ratioP1;P1;durP2;ratioP2;P2;SDS_P1;SDS_P2;PMS_P1;PMS_P2;Temp;Humidity;BMP_temperature;BMP_pressure;BME280_temperature;BME280_humidity;BME280_pressure;Samples;Min_cycle;Max_cycle;Signal;HPM_P1;HPM_P2
2023/10/30 00:00:08;;;;;;;7.73;0.90;;;;;;;;;;5056013;28;20621;-82
2023/10/30 00:02:34;;;;;;;2.85;1.25;;;;;;;;;;5058039;28;20024;-82
2023/10/30 00:04:59;;;;;;;3.92;0.98;;;;;;;;;;5050425;28;20108;-82
2023/10/30 00:07:27;;;;;;;10.37;1.17;;;;;;;;;;5058052;28;20058;-82
2023/10/30 00:09:52;;;;;;;7.18;1.40;;;;;;;;;;5057750;28;20396;-82
2023/10/30 00:12:17;;;;;;;7.20;1.10;;;;;;;;;;5076157;28;20017;-81
2023/10/30 00:14:43;;;;;;;4.60;0.87;;;;;;;;;;5057664;28;20256;-81
2023/10/30 00:17:08;;;;;;;5.10;1.20;;;;;;;;;;5057989;28;20272;-81
2023/10/30 00:19:33;;;;;;;6.37;1.37;;;;;;;;;;5058226;28;20253;-81
2023/10/30 00:21:59;;;;;;;5.18;0.80;;;;;;;;;;5058010;28;20024;-81
2023/10/30 00:24:25;;;;;;;7.87;1.30;;;;;;;;;;5075478;28;20044;-82
2023/10/30 00:26:50;;;;;;;5.90;1.00;;;;;;;;;;5057820;28;20090;-81
2023/10/30 00:29:15;;;;;;;5.57;1.02;;;;;;;;;;5057648;28;20024;-82
2023/10/30 00:31:40;;;;;;;4.47;1.15;;;;;;;;;;5057290;28;21627;-82
2023/10/30 00:34:09;;;;;;;4.07;1.30;;;;;;;;;;5057498;28;20021;-82
2023/10/30 00:36:35;;;;;;;6.47;1.23;;;;;;;;;;5057144;28;20814;-82
2023/10/30 00:39:00;;;;;;;2.72;0.80;;;;;;;;;;5075372;28;20016;-82
2023/10/30 00:41:25;;;;;;;9.17;1.03;;;;;;;;;;5075487;28;20033;-82
2023/10/30 00:43:51;;;;;;;6.03;1.27;;;;;;;;;;5056820;28;20037;-82
2023/10/30 00:46:17;;;;;;;7.73;0.63;;;;;;;;;;5057351;28;20020;-81
2023/10/30 00:48:42;;;;;;;6.72;0.80;;;;;;;;;;5057111;28;20056;-82
2023/10/30 00:51:07;;;;;;;6.85;1.00;;;;;;;;;;5057206;28;20490;-81
2023/10/30 00:53:33;;;;;;;6.80;0.98;;;;;;;;;;5057377;28;20127;-81
2023/10/30 00:55:58;;;;;;;7.60;0.70;;;;;;;;;;5056973;28;20420;-81
2023/10/30 00:58:23;;;;;;;2.83;0.50;;;;;;;;;;5057136;28;20066;-82
2023/10/30 01:00:48;;;;;;;8.33;1.00;;;;;;;;;;5057143;28;20056;-82
2023/10/30 01:03:15;;;;;;;5.03;0.82;;;;;;;;;;5056932;28;20326;-82
2023/10/30 01:05:40;;;;;;;7.10;1.05;;;;;;;;;;5057197;28;20051;-82
2023/10/30 01:08:08;;;;;;;2.80;0.55;;;;;;;;;;5074690;28;20024;-82
2023/10/30 01:10:34;;;;;;;6.82;0.85;;;;;;;;;;5056635;28;20020;-82
2023/10/30 01:13:00;;;;;;;2.78;0.70;;;;;;;;;;5056824;28;20547;-82
2023/10/30 01:15:25;;;;;;;2.37;0.90;;;;;;;;;;5074694;28;20115;-82
2023/10/30 01:17:50;;;;;;;6.83;1.03;;;;;;;;;;5056908;28;20356;-82
2023/10/30 01:20:15;;;;;;;4.60;0.70;;;;;;;;;;5056784;28;20289;-82
2023/10/30 01:22:40;;;;;;;3.20;0.67;;;;;;;;;;5056339;28;20464;-82
2023/10/30 01:25:06;;;;;;;6.23;0.80;;;;;;;;;;5074583;28;20683;-82
2023/10/30 01:27:31;;;;;;;4.45;0.63;;;;;;;;;;5056455;28;20355;-81
2023/10/30 01:29:56;;;;;;;3.40;0.93;;;;;;;;;;5074473;28;20013;-81
2023/10/30 01:32:22;;;;;;;4.10;0.77;;;;;;;;;;5056379;28;20337;-81
2023/10/30 01:34:47;;;;;;;2.87;0.50;;;;;;;;;;5074042;28;20027;-82
2023/10/30 01:37:12;;;;;;;3.23;0.70;;;;;;;;;;5056512;28;20253;-82
2023/10/30 01:39:38;;;;;;;3.15;1.02;;;;;;;;;;5074068;28;20292;-82
2023/10/30 01:42:03;;;;;;;5.30;0.95;;;;;;;;;;5056408;28;20391;-82
2023/10/30 01:44:28;;;;;;;8.52;1.42;;;;;;;;;;5056210;28;20016;-82
2023/10/30 01:46:53;;;;;;;4.13;0.60;;;;;;;;;;5056052;28;20074;-82
2023/10/30 01:49:19;;;;;;;3.13;0.90;;;;;;;;;;5074209;28;20112;-82
2023/10/30 01:51:44;;;;;;;4.28;0.70;;;;;;;;;;5073793;28;20305;-82
2023/10/30 01:54:10;;;;;;;7.43;0.70;;;;;;;;;;5074055;28;20052;-82
2023/10/30 01:56:35;;;;;;;8.05;0.68;;;;;;;;;;5073972;28;20514;-82
2023/10/30 01:59:01;;;;;;;2.75;0.90;;;;;;;;;;5073610;28;20024;-82
2023/10/30 02:01:26;;;;;;;1.73;0.73;;;;;;;;;;5055898;28;20079;-81
2023/10/30 02:03:55;;;;;;;4.45;0.60;;;;;;;;;;5055569;28;20077;-82
2023/10/30 02:06:20;;;;;;;2.08;1.40;;;;;;;;;;5055937;28;20024;-81
2023/10/30 02:08:46;;;;;;;2.83;0.70;;;;;;;;;;5055756;28;20500;-81
2023/10/30 02:11:11;;;;;;;3.65;0.82;;;;;;;;;;5055276;28;20032;-82
2023/10/30 02:13:36;;;;;;;2.60;0.50;;;;;;;;;;5055193;28;20111;-82
2023/10/30 02:16:01;;;;;;;2.77;0.70;;;;;;;;;;5073592;28;20285;-82
2023/10/30 02:18:27;;;;;;;3.42;1.75;;;;;;;;;;5055569;28;20107;-82
2023/10/30 02:20:52;;;;;;;3.10;0.90;;;;;;;;;;5073278;28;20476;-82
2023/10/30 02:23:17;;;;;;;5.73;0.50;;;;;;;;;;5072667;28;20353;-82
2023/10/30 02:25:42;;;;;;;1.57;0.50;;;;;;;;;;5073411;28;20292;-82
2023/10/30 02:28:08;;;;;;;4.95;0.80;;;;;;;;;;5073171;28;20107;-82
2023/10/30 02:30:33;;;;;;;3.00;0.50;;;;;;;;;;5055345;28;20025;-82
2023/10/30 02:32:58;;;;;;;1.73;0.70;;;;;;;;;;5073339;28;20469;-81
2023/10/30 02:35:23;;;;;;;3.50;0.60;;;;;;;;;;5055037;28;20021;-81
2023/10/30 02:37:49;;;;;;;3.97;0.50;;;;;;;;;;5073111;28;20016;-81
2023/10/30 02:40:14;;;;;;;1.37;0.70;;;;;;;;;;5055052;28;20032;-82
2023/10/30 02:42:40;;;;;;;4.93;0.80;;;;;;;;;;5055255;28;20265;-81
2023/10/30 02:45:06;;;;;;;2.22;0.40;;;;;;;;;;5073058;28;20017;-81
2023/10/30 02:47:31;;;;;;;1.13;0.93;;;;;;;;;;5055077;28;20395;-82
2023/10/30 02:49:57;;;;;;;3.40;0.60;;;;;;;;;;5072955;28;20121;-82
2023/10/30 02:52:22;;;;;;;1.98;0.50;;;;;;;;;;5054820;28;20020;-82
2023/10/30 02:54:47;;;;;;;3.28;0.60;;;;;;;;;;5073457;28;20028;-82
2023/10/30 02:57:15;;;;;;;1.10;0.47;;;;;;;;;;5072999;28;20016;-82
2023/10/30 02:59:41;;;;;;;4.93;0.88;;;;;;;;;;5054903;28;20265;-82
2023/10/30 03:02:06;;;;;;;3.65;0.50;;;;;;;;;;5054844;28;20028;-82
2023/10/30 03:04:32;;;;;;;5.88;1.05;;;;;;;;;;5054905;28;20024;-82
2023/10/30 03:06:58;;;;;;;4.25;0.70;;;;;;;;;;5072921;28;20029;-82
2023/10/30 03:09:25;;;;;;;1.85;0.50;;;;;;;;;;5054850;28;20089;-82
2023/10/30 03:11:50;;;;;;;1.40;0.70;;;;;;;;;;5054740;28;20025;-82
2023/10/30 03:14:15;;;;;;;4.37;0.80;;;;;;;;;;5072910;28;20096;-82
2023/10/30 03:16:40;;;;;;;6.07;0.77;;;;;;;;;;5072619;28;20393;-81
2023/10/30 03:19:06;;;;;;;3.00;0.60;;;;;;;;;;5054760;28;20012;-81
2023/10/30 03:21:31;;;;;;;2.63;0.52;;;;;;;;;;5072496;28;20029;-81
2023/10/30 03:23:56;;;;;;;5.00;0.73;;;;;;;;;;5054705;28;20565;-82
2023/10/30 03:26:23;;;;;;;0.70;0.43;;;;;;;;;;5072406;28;20304;-82
2023/10/30 03:28:49;;;;;;;2.20;0.73;;;;;;;;;;5072756;28;20035;-82
2023/10/30 03:31:14;;;;;;;3.23;0.50;;;;;;;;;;5054541;28;20497;-82
2023/10/30 03:33:39;;;;;;;2.37;0.57;;;;;;;;;;5054614;28;20256;-82
2023/10/30 03:36:04;;;;;;;3.47;0.90;;;;;;;;;;5057715;28;20264;-82
2023/10/30 03:38:30;;;;;;;0.77;0.30;;;;;;;;;;5058480;28;20264;-82
2023/10/30 03:40:55;;;;;;;6.63;0.88;;;;;;;;;;5058584;28;20099;-82
2023/10/30 03:43:20;;;;;;;3.42;0.63;;;;;;;;;;5058540;28;20021;-82
2023/10/30 03:45:45;;;;;;;1.23;0.43;;;;;;;;;;5058331;28;20399;-82
2023/10/30 03:48:11;;;;;;;1.65;0.47;;;;;;;;;;5076459;28;20016;-82
2023/10/30 03:50:36;;;;;;;3.08;0.70;;;;;;;;;;5058112;28;20030;-82
2023/10/30 03:53:01;;;;;;;7.77;0.67;;;;;;;;;;5058398;28;20468;-82
2023/10/30 03:55:27;;;;;;;3.03;0.80;;;;;;;;;;5058046;28;20768;-82
2023/10/30 03:57:52;;;;;;;1.23;0.50;;;;;;;;;;5058117;28;20760;-81
2023/10/30 04:00:17;;;;;;;1.13;0.50;;;;;;;;;;5076015;28;20268;-82
2023/10/30 04:02:42;;;;;;;3.20;0.60;;;;;;;;;;5058190;28;20273;-82
2023/10/30 04:05:08;;;;;;;4.73;0.60;;;;;;;;;;5058357;28;20028;-82
2023/10/30 04:07:33;;;;;;;1.27;0.63;;;;;;;;;;5058434;28;20258;-82
2023/10/30 04:09:58;;;;;;;2.53;1.00;;;;;;;;;;5058444;28;20107;-82
2023/10/30 04:12:24;;;;;;;1.80;0.47;;;;;;;;;;5058395;28;20016;-82
2023/10/30 04:14:50;;;;;;;0.63;0.30;;;;;;;;;;5076088;28;20253;-82
2023/10/30 04:17:15;;;;;;;2.67;0.70;;;;;;;;;;5076084;28;20276;-82
2023/10/30 04:19:40;;;;;;;1.88;0.50;;;;;;;;;;5076209;28;20025;-82
2023/10/30 04:22:05;;;;;;;3.20;0.67;;;;;;;;;;5058213;28;20024;-82
2023/10/30 04:24:32;;;;;;;0.65;0.40;;;;;;;;;;5075824;28;20277;-81
2023/10/30 04:26:57;;;;;;;1.52;0.55;;;;;;;;;;5076155;28;20404;-82
2023/10/30 04:29:22;;;;;;;5.40;0.70;;;;;;;;;;5058061;28;20017;-81
2023/10/30 04:31:47;;;;;;;0.88;0.50;;;;;;;;;;5057947;28;20021;-81
2023/10/30 04:34:13;;;;;;;3.10;0.73;;;;;;;;;;5057897;28;20017;-84
2023/10/30 04:36:38;;;;;;;2.83;0.50;;;;;;;;;;5057826;28;20253;-82
2023/10/30 04:39:03;;;;;;;0.50;0.50;;;;;;;;;;5057882;28;20264;-82
2023/10/30 04:41:30;;;;;;;1.67;0.57;;;;;;;;;;5057913;28;20331;-82
2023/10/30 04:43:55;;;;;;;1.65;0.60;;;;;;;;;;5057826;28;20056;-82
2023/10/30 04:46:21;;;;;;;3.47;0.63;;;;;;;;;;5057293;28;20024;-81
2023/10/30 04:48:46;;;;;;;0.33;0.33;;;;;;;;;;5056815;28;20776;-81
2023/10/30 04:51:11;;;;;;;0.77;0.40;;;;;;;;;;5057075;28;20084;-83
2023/10/30 04:53:36;;;;;;;2.50;0.97;;;;;;;;;;5075516;28;20249;-82
2023/10/30 04:56:02;;;;;;;1.70;0.40;;;;;;;;;;5057576;28;20257;-82
2023/10/30 04:58:27;;;;;;;0.50;0.30;;;;;;;;;;5075003;28;20099;-81
2023/10/30 05:00:53;;;;;;;0.98;0.63;;;;;;;;;;5075455;28;20048;-82
2023/10/30 05:03:18;;;;;;;1.23;0.40;;;;;;;;;;5057424;28;20020;-83
2023/10/30 05:05:43;;;;;;;1.90;0.60;;;;;;;;;;5074384;28;20107;-83
2023/10/30 05:08:09;;;;;;;9.18;1.05;;;;;;;;;;5073906;28;20021;-82
2023/10/30 05:10:34;;;;;;;3.20;0.50;;;;;;;;;;5056945;28;20346;-82
2023/10/30 05:12:59;;;;;;;2.20;0.70;;;;;;;;;;5057302;28;20253;-82
2023/10/30 05:15:24;;;;;;;0.63;0.43;;;;;;;;;;5057207;28;20745;-82
2023/10/30 05:17:50;;;;;;;1.30;0.40;;;;;;;;;;5075145;28;20804;-82
2023/10/30 05:20:15;;;;;;;1.65;0.63;;;;;;;;;;5075052;28;20020;-82
2023/10/30 05:22:41;;;;;;;1.80;0.45;;;;;;;;;;5056959;28;20032;-82
2023/10/30 05:25:06;;;;;;;1.63;0.50;;;;;;;;;;5057009;28;20112;-82
2023/10/30 05:27:32;;;;;;;0.52;0.50;;;;;;;;;;5056944;28;20052;-82
2023/10/30 05:29:57;;;;;;;0.47;0.43;;;;;;;;;;5056911;28;20543;-82
2023/10/30 05:32:22;;;;;;;0.40;0.32;;;;;;;;;;5056897;28;20027;-82
2023/10/30 05:34:48;;;;;;;3.80;0.63;;;;;;;;;;5056716;28;20051;-82
2023/10/30 05:37:14;;;;;;;1.27;0.40;;;;;;;;;;5056780;28;20469;-82
2023/10/30 05:39:39;;;;;;;3.13;0.95;;;;;;;;;;5056795;28;20028;-82
2023/10/30 05:42:05;;;;;;;2.40;0.65;;;;;;;;;;5074635;28;20020;-82
2023/10/30 05:44:30;;;;;;;0.55;0.40;;;;;;;;;;5056647;28;20021;-82
2023/10/30 05:46:56;;;;;;;3.15;0.63;;;;;;;;;;5074495;28;20017;-82
2023/10/30 05:49:21;;;;;;;2.45;0.50;;;;;;;;;;5074497;28;20025;-82
2023/10/30 05:51:46;;;;;;;2.00;0.70;;;;;;;;;;5056444;28;20020;-82
2023/10/30 05:54:12;;;;;;;1.23;0.70;;;;;;;;;;5056404;28;20249;-82
2023/10/30 05:56:37;;;;;;;0.53;0.40;;;;;;;;;;5055983;28;20024;-82
2023/10/30 05:59:03;;;;;;;1.63;0.47;;;;;;;;;;5073914;28;20246;-82
2023/10/30 06:01:28;;;;;;;1.30;0.50;;;;;;;;;;5074290;28;20021;-82
2023/10/30 06:03:53;;;;;;;1.73;0.40;;;;;;;;;;5056184;28;20366;-82
2023/10/30 06:06:18;;;;;;;0.98;0.50;;;;;;;;;;5074126;28;20752;-82
2023/10/30 06:08:43;;;;;;;0.60;0.40;;;;;;;;;;5074201;28;20039;-82
2023/10/30 06:11:10;;;;;;;0.23;0.23;;;;;;;;;;5073903;28;20284;-82
2023/10/30 06:13:35;;;;;;;1.60;0.38;;;;;;;;;;5056086;28;20024;-82
2023/10/30 06:16:00;;;;;;;2.67;0.50;;;;;;;;;;5056018;28;20017;-82
2023/10/30 06:18:26;;;;;;;0.40;0.40;;;;;;;;;;5055944;28;20265;-81
2023/10/30 06:20:51;;;;;;;0.47;0.40;;;;;;;;;;5055951;28;20665;-82
2023/10/30 06:23:16;;;;;;;2.97;0.60;;;;;;;;;;5073799;28;20762;-82
2023/10/30 06:25:41;;;;;;;0.30;0.30;;;;;;;;;;5055959;28;20704;-82
2023/10/30 06:28:08;;;;;;;0.70;0.40;;;;;;;;;;5055829;28;20025;-82
2023/10/30 06:30:34;;;;;;;3.60;0.40;;;;;;;;;;5055728;28;20032;-82
2023/10/30 06:32:59;;;;;;;1.60;0.57;;;;;;;;;;5055827;28;20372;-82
2023/10/30 06:35:24;;;;;;;0.80;0.43;;;;;;;;;;5055608;28;20246;-82
2023/10/30 06:37:50;;;;;;;0.95;0.40;;;;;;;;;;5073577;28;20628;-82
2023/10/30 06:40:15;;;;;;;2.28;0.60;;;;;;;;;;5073591;28;20078;-82
2023/10/30 06:42:40;;;;;;;0.63;0.50;;;;;;;;;;5055682;28;20103;-82
2023/10/30 06:45:07;;;;;;;0.40;0.37;;;;;;;;;;5073501;28;20332;-82
2023/10/30 06:47:33;;;;;;;1.58;0.50;;;;;;;;;;5055548;28;20245;-82
2023/10/30 06:49:58;;;;;;;1.20;0.30;;;;;;;;;;5055465;28;20020;-82
2023/10/30 06:52:23;;;;;;;0.40;0.30;;;;;;;;;;5073467;28;20256;-82
2023/10/30 06:54:48;;;;;;;2.00;0.17;;;;;;;;;;5055477;28;20039;-82
2023/10/30 06:57:13;;;;;;;0.30;0.20;;;;;;;;;;5055498;28;20507;-82
2023/10/30 06:59:39;;;;;;;0.20;0.20;;;;;;;;;;5055363;28;20614;-82
2023/10/30 07:02:04;;;;;;;0.20;0.20;;;;;;;;;;5055318;28;20617;-82
2023/10/30 07:04:30;;;;;;;1.40;0.30;;;;;;;;;;5073291;28;20472;-82
2023/10/30 07:06:55;;;;;;;0.40;0.30;;;;;;;;;;5073300;28;20717;-82
2023/10/30 07:09:20;;;;;;;0.63;0.20;;;;;;;;;;5055062;28;20365;-83
2023/10/30 07:11:46;;;;;;;0.45;0.20;;;;;;;;;;5055125;28;20028;-82
2023/10/30 07:14:11;;;;;;;0.20;0.20;;;;;;;;;;5055246;28;20028;-82
2023/10/30 07:16:36;;;;;;;0.60;0.30;;;;;;;;;;5073199;28;20427;-82
2023/10/30 07:19:02;;;;;;;0.20;0.20;;;;;;;;;;5055197;28;20370;-82
2023/10/30 07:21:28;;;;;;;1.25;0.10;;;;;;;;;;5055010;28;20024;-82
2023/10/30 07:23:53;;;;;;;2.80;1.13;;;;;;;;;;5055015;28;20412;-82
2023/10/30 07:26:20;;;;;;;1.45;0.82;;;;;;;;;;5073104;28;20047;-82
2023/10/30 07:28:46;;;;;;;1.55;0.77;;;;;;;;;;5055077;28;20028;-82
2023/10/30 07:31:11;;;;;;;1.13;0.52;;;;;;;;;;5072972;28;20037;-82
2023/10/30 07:33:36;;;;;;;2.50;0.38;;;;;;;;;;5055068;28;20015;-82
2023/10/30 07:36:02;;;;;;;1.15;0.50;;;;;;;;;;5054980;28;20032;-82
2023/10/30 07:38:27;;;;;;;2.25;1.20;;;;;;;;;;5055004;28;20021;-82
2023/10/30 07:40:53;;;;;;;1.35;1.00;;;;;;;;;;5073014;28;20023;-82
2023/10/30 07:43:18;;;;;;;0.60;0.40;;;;;;;;;;5054941;28;20028;-82
2023/10/30 07:45:43;;;;;;;6.63;1.80;;;;;;;;;;5054922;28;20027;-82
2023/10/30 07:48:08;;;;;;;0.87;0.67;;;;;;;;;;5054897;28;20086;-82
2023/10/30 07:50:37;;;;;;;2.13;1.40;;;;;;;;;;5072692;28;20273;-82
2023/10/30 07:53:02;;;;;;;2.10;1.10;;;;;;;;;;5054855;28;20008;-82
2023/10/30 07:55:28;;;;;;;3.60;0.82;;;;;;;;;;5054820;28;20074;-82
2023/10/30 07:57:53;;;;;;;1.55;0.70;;;;;;;;;;5055081;28;20384;-82
2023/10/30 08:00:18;;;;;;;1.58;0.70;;;;;;;;;;5072780;28;20025;-82
2023/10/30 08:02:46;;;;;;;0.85;0.57;;;;;;;;;;5054743;28;20028;-82
2023/10/30 08:05:13;;;;;;;0.52;0.50;;;;;;;;;;5054691;28;20101;-82
2023/10/30 08:07:38;;;;;;;0.68;0.50;;;;;;;;;;5072728;28;20496;-82
2023/10/30 08:10:05;;;;;;;0.83;0.60;;;;;;;;;;5054625;28;20043;-82
2023/10/30 08:12:30;;;;;;;0.52;0.45;;;;;;;;;;5072683;28;20250;-82
2023/10/30 08:14:55;;;;;;;1.00;0.50;;;;;;;;;;5072638;28;20025;-82
2023/10/30 08:17:20;;;;;;;0.57;0.50;;;;;;;;;;5072633;28;20662;-82
2023/10/30 08:19:47;;;;;;;1.00;0.47;;;;;;;;;;5054606;28;20806;-82
2023/10/30 08:22:12;;;;;;;1.02;0.50;;;;;;;;;;5057897;28;20311;-82
2023/10/30 08:24:37;;;;;;;0.40;0.40;;;;;;;;;;5054724;28;20443;-82
2023/10/30 08:27:03;;;;;;;0.70;0.52;;;;;;;;;;5055137;28;20099;-82
2023/10/30 08:29:29;;;;;;;0.47;0.45;;;;;;;;;;5054807;28;20025;-82
2023/10/30 08:31:54;;;;;;;3.85;0.35;;;;;;;;;;5054605;28;20500;-82
2023/10/30 08:34:19;;;;;;;0.97;0.50;;;;;;;;;;5054555;28;20021;-82
2023/10/30 08:36:45;;;;;;;2.03;1.20;;;;;;;;;;5054653;28;20028;-82
2023/10/30 08:39:12;;;;;;;1.08;0.90;;;;;;;;;;5054617;28;20021;-82
2023/10/30 08:41:37;;;;;;;2.28;1.40;;;;;;;;;;5054586;28;20556;-82
2023/10/30 08:44:02;;;;;;;2.87;1.50;;;;;;;;;;5054458;28;20056;-82
2023/10/30 08:46:28;;;;;;;0.77;0.77;;;;;;;;;;5055746;28;20131;-82
2023/10/30 08:48:55;;;;;;;2.35;1.02;;;;;;;;;;5054385;28;20266;-82
2023/10/30 08:51:20;;;;;;;1.20;0.88;;;;;;;;;;5054213;28;20021;-82
2023/10/30 08:53:46;;;;;;;4.28;1.45;;;;;;;;;;5054331;28;20032;-82
2023/10/30 08:56:11;;;;;;;2.85;1.67;;;;;;;;;;5054314;28;20111;-82
2023/10/30 08:58:36;;;;;;;1.83;1.13;;;;;;;;;;5055544;28;20013;-82
2023/10/30 09:01:02;;;;;;;0.95;0.70;;;;;;;;;;5054198;28;20769;-82
2023/10/30 09:03:27;;;;;;;0.70;0.70;;;;;;;;;;5055412;28;20501;-82
2023/10/30 09:05:52;;;;;;;1.33;0.80;;;;;;;;;;5054212;28;20025;-82
2023/10/30 09:08:17;;;;;;;0.60;0.50;;;;;;;;;;5054092;28;20021;-82
2023/10/30 09:10:43;;;;;;;1.00;0.43;;;;;;;;;;5055305;28;20029;-82
2023/10/30 09:13:08;;;;;;;2.53;0.60;;;;;;;;;;5053912;28;20254;-82
2023/10/30 09:15:33;;;;;;;1.37;0.70;;;;;;;;;;5053926;28;20333;-82
2023/10/30 09:17:58;;;;;;;0.50;0.50;;;;;;;;;;5055152;28;20039;-82
2023/10/30 09:20:23;;;;;;;0.80;0.70;;;;;;;;;;5053852;28;20395;-82
2023/10/30 09:22:49;;;;;;;0.67;0.50;;;;;;;;;;5056299;28;20682;-82
2023/10/30 09:25:14;;;;;;;3.50;0.77;;;;;;;;;;5057018;28;20540;-82
2023/10/30 09:27:39;;;;;;;14.10;1.40;;;;;;;;;;5074930;28;20031;-82
2023/10/30 09:30:05;;;;;;;1.08;0.65;;;;;;;;;;5074789;28;20491;-82
2023/10/30 09:32:31;;;;;;;5.80;0.80;;;;;;;;;;5056854;28;20023;-82
2023/10/30 09:34:56;;;;;;;1.35;0.95;;;;;;;;;;5056805;28;20008;-82
2023/10/30 09:37:22;;;;;;;2.20;0.60;;;;;;;;;;5074724;28;20155;-82
2023/10/30 09:39:47;;;;;;;1.10;0.50;;;;;;;;;;5056768;28;20021;-82
2023/10/30 09:42:14;;;;;;;3.42;0.40;;;;;;;;;;5074667;28;20030;-82
2023/10/30 09:44:39;;;;;;;6.25;0.75;;;;;;;;;;5056705;28;20042;-82
2023/10/30 09:47:05;;;;;;;0.63;0.50;;;;;;;;;;5056561;28;20024;-82
2023/10/30 09:49:32;;;;;;;0.30;0.20;;;;;;;;;;5074497;28;20039;-82
2023/10/30 09:51:59;;;;;;;0.57;0.38;;;;;;;;;;5074368;28;20410;-82
2023/10/30 09:54:24;;;;;;;1.55;0.52;;;;;;;;;;5056451;28;20020;-82
2023/10/30 09:56:50;;;;;;;1.27;0.50;;;;;;;;;;5074318;28;20020;-82
2023/10/30 09:59:16;;;;;;;1.60;0.47;;;;;;;;;;5056389;28;20122;-82
2023/10/30 10:01:42;;;;;;;0.77;0.40;;;;;;;;;;5074265;28;20107;-82
2023/10/30 10:04:07;;;;;;;4.65;0.43;;;;;;;;;;5056272;28;20582;-82
2023/10/30 10:06:32;;;;;;;0.43;0.33;;;;;;;;;;5074165;28;20394;-82
2023/10/30 10:08:57;;;;;;;2.00;0.30;;;;;;;;;;5056233;28;20035;-82
2023/10/30 10:11:22;;;;;;;0.60;0.40;;;;;;;;;;5073998;28;20150;-82
2023/10/30 10:13:49;;;;;;;0.70;0.40;;;;;;;;;;5056105;28;20028;-82
2023/10/30 10:16:14;;;;;;;0.85;0.40;;;;;;;;;;5073975;28;20620;-82
2023/10/30 10:18:40;;;;;;;2.50;0.20;;;;;;;;;;5056025;28;20107;-82
2023/10/30 10:21:08;;;;;;;0.97;0.40;;;;;;;;;;5055981;28;20076;-82
2023/10/30 10:23:34;;;;;;;0.50;0.30;;;;;;;;;;5073665;28;20048;-82
2023/10/30 10:26:00;;;;;;;0.38;0.30;;;;;;;;;;5055923;28;20033;-82
2023/10/30 10:28:26;;;;;;;1.00;0.40;;;;;;;;;;5055812;28;20024;-82
2023/10/30 10:30:53;;;;;;;0.73;0.50;;;;;;;;;;5073699;28;20361;-81
2023/10/30 10:33:22;;;;;;;0.30;0.30;;;;;;;;;;5055822;28;20019;-82
2023/10/30 10:35:51;;;;;;;1.42;0.35;;;;;;;;;;5055705;28;20016;-82
2023/10/30 10:38:18;;;;;;;1.42;0.40;;;;;;;;;;5073697;28;20028;-82
2023/10/30 10:40:44;;;;;;;1.05;0.35;;;;;;;;;;5055715;28;20048;-82
2023/10/30 10:43:11;;;;;;;0.73;0.30;;;;;;;;;;5055190;28;20028;-82
2023/10/30 10:45:37;;;;;;;0.30;0.30;;;;;;;;;;5055612;28;20503;-82
2023/10/30 10:48:02;;;;;;;2.75;0.30;;;;;;;;;;5055605;28;20021;-82
2023/10/30 10:50:28;;;;;;;0.20;0.20;;;;;;;;;;5055532;28;20036;-82
2023/10/30 10:52:53;;;;;;;0.70;0.30;;;;;;;;;;5055462;28;20024;-82
2023/10/30 10:55:22;;;;;;;0.43;0.25;;;;;;;;;;5055440;28;20254;-82
2023/10/30 10:57:58;;;;;;;0.65;0.30;;;;;;;;;;5055506;28;20480;-82
2023/10/30 11:00:28;;;;;;;1.13;0.40;;;;;;;;;;5055394;28;20476;-82
2023/10/30 11:02:54;;;;;;;0.40;0.30;;;;;;;;;;5055342;28;20086;-82
2023/10/30 11:05:21;;;;;;;4.32;0.50;;;;;;;;;;5055332;28;20044;-82
2023/10/30 11:07:52;;;;;;;1.00;0.40;;;;;;;;;;5073290;28;20020;-82
2023/10/30 11:10:22;;;;;;;0.40;0.30;;;;;;;;;;5073163;28;20024;-82
2023/10/30 11:13:13;;;;;;;0.98;0.60;;;;;;;;;;5055277;28;20023;-82
2023/10/30 11:15:45;;;;;;;0.83;0.50;;;;;;;;;;5040022;28;20033;-82
2023/10/30 11:18:14;;;;;;;0.45;0.45;;;;;;;;;;5055197;28;20385;-82
2023/10/30 11:20:42;;;;;;;0.93;0.55;;;;;;;;;;5073142;28;20021;-82
2023/10/30 11:23:09;;;;;;;0.35;0.30;;;;;;;;;;5072932;28;20129;-82
2023/10/30 11:25:39;;;;;;;2.83;0.47;;;;;;;;;;5055098;28;20483;-82
2023/10/30 11:28:04;;;;;;;0.25;0.20;;;;;;;;;;5073064;28;20051;-82
2023/10/30 11:30:31;;;;;;;1.50;0.52;;;;;;;;;;5072966;28;20056;-83
2023/10/30 11:32:57;;;;;;;2.15;0.50;;;;;;;;;;5055115;28;20017;-82
2023/10/30 11:35:23;;;;;;;1.75;0.40;;;;;;;;;;5072915;28;20019;-82
2023/10/30 11:37:49;;;;;;;1.55;0.55;;;;;;;;;;5055032;28;20040;-82
2023/10/30 11:40:14;;;;;;;0.40;0.40;;;;;;;;;;5054975;28;20017;-82
2023/10/30 11:42:41;;;;;;;1.02;0.55;;;;;;;;;;5054998;28;20027;-82
2023/10/30 11:45:20;;;;;;;0.85;0.50;;;;;;;;;;5072870;28;20017;-82
2023/10/30 11:47:46;;;;;;;1.23;0.85;;;;;;;;;;5054986;28;20107;-82
2023/10/30 11:50:11;;;;;;;1.65;0.43;;;;;;;;;;5072820;28;20113;-82
2023/10/30 11:52:37;;;;;;;1.43;0.60;;;;;;;;;;5054823;28;20491;-82
2023/10/30 11:55:06;;;;;;;0.65;0.47;;;;;;;;;;5072870;28;20277;-81
2023/10/30 11:57:33;;;;;;;0.75;0.55;;;;;;;;;;5076572;28;20021;-82
2023/10/30 11:59:59;;;;;;;3.25;0.60;;;;;;;;;;5058685;28;20469;-82
2023/10/30 12:02:24;;;;;;;0.43;0.43;;;;;;;;;;5058622;28;20469;-82
2023/10/30 12:04:49;;;;;;;1.13;0.70;;;;;;;;;;5058602;28;20023;-82
2023/10/30 12:07:15;;;;;;;2.37;0.67;;;;;;;;;;5058527;28;20021;-82
2023/10/30 12:09:41;;;;;;;1.45;0.70;;;;;;;;;;5058510;28;20249;-82
2023/10/30 12:12:06;;;;;;;1.98;0.80;;;;;;;;;;5076291;28;20384;-82
2023/10/30 12:14:31;;;;;;;2.72;0.70;;;;;;;;;;5076306;28;20017;-82
2023/10/30 12:16:57;;;;;;;2.97;0.95;;;;;;;;;;5058374;28;20021;-82
2023/10/30 12:19:23;;;;;;;1.08;0.65;;;;;;;;;;5058349;28;20070;-82
2023/10/30 12:21:48;;;;;;;2.05;0.60;;;;;;;;;;5058266;28;20115;-82
2023/10/30 12:24:17;;;;;;;4.05;0.90;;;;;;;;;;5076095;28;20044;-82
2023/10/30 12:26:43;;;;;;;1.40;0.70;;;;;;;;;;5058333;28;20111;-82
2023/10/30 12:29:08;;;;;;;2.58;0.65;;;;;;;;;;5058088;28;20170;-82
2023/10/30 12:31:35;;;;;;;1.05;0.60;;;;;;;;;;5058075;28;20016;-82
2023/10/30 12:34:10;;;;;;;1.13;0.75;;;;;;;;;;5058011;28;20017;-82
2023/10/30 12:36:36;;;;;;;0.80;0.50;;;;;;;;;;5057956;28;20012;-82
2023/10/30 12:39:11;;;;;;;0.93;0.70;;;;;;;;;;5075913;28;20020;-82
2023/10/30 12:41:36;;;;;;;1.35;0.80;;;;;;;;;;5075862;28;20021;-82
2023/10/30 12:44:01;;;;;;;4.55;0.82;;;;;;;;;;5057856;28;20027;-82
2023/10/30 12:46:27;;;;;;;1.33;0.43;;;;;;;;;;5075735;28;20099;-82
2023/10/30 12:48:52;;;;;;;0.97;0.53;;;;;;;;;;5057832;28;20253;-82
2023/10/30 12:51:18;;;;;;;4.27;1.00;;;;;;;;;;5057564;28;20300;-82
2023/10/30 12:53:43;;;;;;;2.78;0.80;;;;;;;;;;5075673;28;20290;-82
2023/10/30 12:56:09;;;;;;;2.17;0.80;;;;;;;;;;5075557;28;20012;-82
2023/10/30 12:58:34;;;;;;;2.17;0.80;;;;;;;;;;5057614;28;20274;-82
2023/10/30 13:01:03;;;;;;;1.53;0.90;;;;;;;;;;5057551;28;20052;-82
2023/10/30 13:03:28;;;;;;;1.10;0.80;;;;;;;;;;5057414;28;20059;-82
2023/10/30 13:05:53;;;;;;;1.20;0.80;;;;;;;;;;5075239;28;20056;-82
2023/10/30 13:08:19;;;;;;;6.95;1.40;;;;;;;;;;5075278;28;20277;-82
2023/10/30 13:10:46;;;;;;;1.73;0.97;;;;;;;;;;5057228;28;20016;-82
2023/10/30 13:13:15;;;;;;;1.38;0.77;;;;;;;;;;5057395;28;20021;-82
2023/10/30 13:15:41;;;;;;;5.97;1.00;;;;;;;;;;5041260;28;20389;-82
2023/10/30 13:18:06;;;;;;;2.67;0.60;;;;;;;;;;5075154;28;20021;-82
2023/10/30 13:20:31;;;;;;;2.93;1.00;;;;;;;;;;5075158;28;20279;-82
2023/10/30 13:22:57;;;;;;;2.13;1.03;;;;;;;;;;5057023;28;20488;-82
2023/10/30 13:25:23;;;;;;;3.05;1.00;;;;;;;;;;5075035;28;20261;-82
2023/10/30 13:27:48;;;;;;;1.83;0.93;;;;;;;;;;5057030;28;20024;-82
2023/10/30 13:30:13;;;;;;;1.77;1.00;;;;;;;;;;5056915;28;20027;-82
2023/10/30 13:32:38;;;;;;;1.73;1.05;;;;;;;;;;5056886;28;20253;-82
2023/10/30 13:35:04;;;;;;;2.00;1.10;;;;;;;;;;5056868;28;20021;-82
2023/10/30 13:37:29;;;;;;;5.03;1.52;;;;;;;;;;5074695;28;20300;-82
2023/10/30 13:39:54;;;;;;;2.20;1.40;;;;;;;;;;5074747;28;20013;-82
2023/10/30 13:42:19;;;;;;;2.40;1.10;;;;;;;;;;5074709;28;20020;-82
2023/10/30 13:44:45;;;;;;;3.73;1.20;;;;;;;;;;5056700;28;20028;-82
2023/10/30 13:47:10;;;;;;;3.37;1.33;;;;;;;;;;5056613;28;20028;-82
2023/10/30 13:49:35;;;;;;;3.20;1.40;;;;;;;;;;5056620;28;20033;-82
2023/10/30 13:52:00;;;;;;;3.17;1.50;;;;;;;;;;5056492;28;20439;-82
2023/10/30 13:54:26;;;;;;;2.40;1.40;;;;;;;;;;5056516;28;20016;-82
2023/10/30 13:56:51;;;;;;;1.25;1.05;;;;;;;;;;5074362;28;20238;-82
2023/10/30 13:59:16;;;;;;;2.03;1.20;;;;;;;;;;5074296;28;20021;-82
2023/10/30 14:01:41;;;;;;;2.13;1.30;;;;;;;;;;5056366;28;20111;-82
2023/10/30 14:04:07;;;;;;;1.98;1.35;;;;;;;;;;5056292;28;20035;-82
2023/10/30 14:06:32;;;;;;;3.90;1.48;;;;;;;;;;5056296;28;20410;-82
2023/10/30 14:08:57;;;;;;;6.60;1.73;;;;;;;;;;5056227;28;20388;-82
2023/10/30 14:11:23;;;;;;;3.40;1.50;;;;;;;;;;5074063;28;20026;-82
2023/10/30 14:13:49;;;;;;;4.70;1.65;;;;;;;;;;5056068;28;20269;-82
2023/10/30 14:16:15;;;;;;;3.70;1.70;;;;;;;;;;5056100;28;20045;-82
2023/10/30 14:18:40;;;;;;;2.42;1.63;;;;;;;;;;5073311;28;20021;-82
2023/10/30 14:21:06;;;;;;;3.42;2.00;;;;;;;;;;5056029;28;20533;-82
2023/10/30 14:23:31;;;;;;;2.97;2.00;;;;;;;;;;5055870;28;20408;-82
2023/10/30 14:25:56;;;;;;;8.15;1.83;;;;;;;;;;5055889;28;20460;-82
2023/10/30 14:28:21;;;;;;;1.92;1.52;;;;;;;;;;5055842;28;20033;-82
2023/10/30 14:30:47;;;;;;;3.57;1.43;;;;;;;;;;5055784;28;20021;-82
2023/10/30 14:33:12;;;;;;;3.53;1.55;;;;;;;;;;5055845;28;20246;-82